Time;durP1;ratioP1;P1;durP2;ratioP2;P2;SDS_P1;SDS_P2;PMS_P1;PMS_P2;Temp;Humidity;BMP_temperature;BMP_pressure;BME280_temperature;BME280_humidity;BME280_pressure;Samples;Min_cycle;Max_cycle;Signal;HPM_P1;HPM_P2
2021/01/18 00:00:59;;;;;;;96.17;46.40;;;90.40;2176.00;;;;;;5027520;28;20025;-75
2021/01/18 00:03:29;;;;;;;87.13;43.23;;;90.40;2176.00;;;;;;5027246;28;20471;-77
2021/01/18 00:05:56;;;;;;;102.33;47.20;;;90.40;2176.00;;;;;;5010108;28;20030;-75
2021/01/18 00:08:36;;;;;;;103.80;50.23;;;90.50;2176.00;;;;;;5016156;28;20022;-83
2021/01/18 00:11:14;;;;;;;106.77;51.13;;;90.40;2176.00;;;;;;5040209;28;20037;-82
2021/01/18 00:14:05;;;;;;;112.13;53.80;;;90.30;2176.00;;;;;;5005938;28;20022;-81
2021/01/18 00:16:59;;;;;;;108.83;53.13;;;90.30;2176.00;;;;;;5036086;28;20002;-81
2021/01/18 00:19:27;;;;;;;102.07;48.38;;;90.40;2176.00;;;;;;5012650;28;20018;-75
2021/01/18 00:21:54;;;;;;;96.97;49.03;;;90.40;2176.00;;;;;;5031984;28;20053;-77
2021/01/18 00:24:32;;;;;;;130.40;57.90;;;90.40;2176.00;;;;;;5031627;28;20033;-74
2021/01/18 00:27:09;;;;;;;101.87;47.27;;;90.40;2176.00;;;;;;5016689;28;20022;-74
2021/01/18 00:29:37;;;;;;;93.70;47.07;;;90.40;2176.00;;;;;;5010551;28;20030;-75
2021/01/18 00:32:12;;;;;;;83.70;43.10;;;90.50;2176.00;;;;;;5011277;28;20050;-75
2021/01/18 00:34:37;;;;;;;77.27;40.00;;;90.50;2176.00;;;;;;5029756;22;20078;-74
2021/01/18 00:37:12;;;;;;;79.77;40.93;;;90.50;2176.00;;;;;;5039790;28;20030;-75
2021/01/18 00:39:43;;;;;;;79.03;40.33;;;90.50;2176.00;;;;;;4998085;28;20549;-74
2021/01/18 00:42:16;;;;;;;75.03;36.70;;;90.30;2176.00;;;;;;5012221;28;20463;-75
2021/01/18 00:44:42;;;;;;;73.57;37.57;;;90.50;2176.00;;;;;;5018247;28;20107;-75
2021/01/18 00:47:07;;;;;;;68.77;36.00;;;90.50;2176.00;;;;;;5018644;28;20022;-74
2021/01/18 00:49:33;;;;;;;74.63;36.67;;;90.50;2176.00;;;;;;5013946;28;20057;-74
2021/01/18 00:51:59;;;;;;;72.97;36.27;;;90.50;2176.00;;;;;;5013997;28;20071;-74
2021/01/18 00:54:25;;;;;;;83.67;39.00;;;90.30;2176.00;;;;;;5013431;28;20070;-74
2021/01/18 00:56:51;;;;;;;81.80;40.07;;;90.50;2176.00;;;;;;5013630;28;20026;-74
2021/01/18 00:59:17;;;;;;;70.17;35.67;;;90.50;2176.00;;;;;;4996720;28;20019;-75
2021/01/18 01:01:42;;;;;;;77.03;38.13;;;90.50;2176.00;;;;;;4992401;28;20130;-74
2021/01/18 01:04:08;;;;;;;73.43;36.07;;;115.20;2176.00;;;;;;4992163;28;20044;-74
2021/01/18 01:06:34;;;;;;;80.10;40.43;;;90.50;2176.00;;;;;;4992083;28;20034;-75
2021/01/18 01:09:01;;;;;;;73.07;37.77;;;115.20;2176.00;;;;;;4992182;28;20028;-75
2021/01/18 01:11:26;;;;;;;78.67;37.80;;;115.20;2176.00;;;;;;4991970;28;20530;-74
2021/01/18 01:13:52;;;;;;;79.67;37.97;;;115.20;2176.00;;;;;;4990798;28;20026;-74
2021/01/18 01:16:18;;;;;;;79.57;38.80;;;115.30;2176.00;;;;;;4992027;28;20487;-74
2021/01/18 01:18:44;;;;;;;73.37;37.77;;;115.30;2176.00;;;;;;4992322;28;20026;-74
2021/01/18 01:21:10;;;;;;;75.30;36.13;;;115.20;2176.00;;;;;;4993875;28;20037;-74
2021/01/18 01:23:36;;;;;;;67.63;34.80;;;115.30;2176.00;;;;;;5006122;28;21266;-74
2021/01/18 01:26:02;;;;;;;68.63;35.33;;;115.30;2176.00;;;;;;5011406;28;20026;-76
2021/01/18 01:28:28;;;;;;;75.13;37.23;;;115.30;2176.00;;;;;;5022264;28;20493;-75
2021/01/18 01:30:54;;;;;;;70.13;36.43;;;115.40;2176.00;;;;;;5017830;28;20030;-76
2021/01/18 01:33:19;;;;;;;70.07;34.43;;;115.40;2176.00;;;;;;5020741;28;20025;-76
2021/01/18 01:35:45;;;;;;;67.23;33.67;;;115.50;2176.00;;;;;;5020410;28;20042;-74
2021/01/18 01:38:20;;;;;;;60.20;31.40;;;115.40;2176.00;;;;;;5009999;28;20034;-76
2021/01/18 01:40:48;;;;;;;61.97;29.47;;;115.50;2176.00;;;;;;5023998;28;20022;-74
2021/01/18 01:43:20;;;;;;;67.07;32.77;;;115.50;2176.00;;;;;;5019925;28;20095;-74
2021/01/18 01:45:45;;;;;;;64.73;33.07;;;115.50;2176.00;;;;;;5007662;28;20498;-75
2021/01/18 01:48:12;;;;;;;65.07;34.43;;;115.50;2176.00;;;;;;5002314;28;20010;-74
2021/01/18 01:50:39;;;;;;;73.73;35.50;;;115.50;2176.00;;;;;;5011904;28;20029;-74
2021/01/18 01:53:29;;;;;;;73.27;36.03;;;115.60;2176.00;;;;;;5023696;28;20026;-75
2021/01/18 01:55:55;;;;;;;75.47;36.03;;;115.60;2176.00;;;;;;5011018;28;20022;-74
2021/01/18 01:58:22;;;;;;;78.97;38.27;;;115.70;2176.00;;;;;;5016386;28;20032;-74
2021/01/18 02:00:49;;;;;;;80.53;38.53;;;115.90;2176.00;;;;;;5015914;28;20080;-75
2021/01/18 02:03:29;;;;;;;70.03;36.20;;;115.80;2176.00;;;;;;5026805;28;20014;-75
2021/01/18 02:05:55;;;;;;;78.50;38.47;;;115.90;2176.00;;;;;;5028417;28;20020;-78
2021/01/18 02:08:21;;;;;;;72.70;34.73;;;115.90;2176.00;;;;;;5023432;28;20385;-78
2021/01/18 02:10:47;;;;;;;71.93;36.33;;;115.90;2176.00;;;;;;5024160;28;20065;-74
2021/01/18 02:13:52;;;;;;;70.87;35.37;;;116.00;2176.00;;;;;;5024661;28;20028;-74
2021/01/18 02:17:02;;;;;;;63.43;31.50;;;116.10;2176.00;;;;;;5032749;28;20006;-76
2021/01/18 02:20:06;;;;;;;60.97;31.57;;;116.10;2176.00;;;;;;5026619;28;20022;-81
2021/01/18 02:23:10;;;;;;;62.75;29.70;;;116.10;2176.00;;;;;;5006579;28;20046;-74
2021/01/18 02:25:58;;;;;;;57.38;28.58;;;116.00;2176.00;;;;;;4906199;29;20045;-74
2021/01/18 02:28:31;;;;;;;55.10;26.60;;;116.10;2176.00;;;;;;5501820;22;20009;-80
2021/01/18 02:31:13;;;;;;;55.65;26.05;;;116.10;2176.00;;;;;;5020911;28;20026;-77
2021/01/18 02:34:10;;;;;;;56.07;27.83;;;116.10;2176.00;;;;;;5020174;28;20014;-75
2021/01/18 02:36:58;;;;;;;53.40;26.73;;;116.10;2176.00;;;;;;5035438;28;20018;-75
2021/01/18 02:39:39;;;;;;;54.03;25.67;;;116.10;2176.00;;;;;;5019355;28;20090;-75
2021/01/18 02:42:26;;;;;;;54.80;27.40;;;116.10;2176.00;;;;;;5019214;28;20034;-76
2021/01/18 02:45:14;;;;;;;56.20;27.47;;;140.80;2176.00;;;;;;4983529;28;20042;-77
2021/01/18 02:47:44;;;;;;;56.57;28.33;;;116.10;2176.00;;;;;;5009952;28;20022;-78
2021/01/18 02:50:11;;;;;;;60.43;27.77;;;140.80;2176.00;;;;;;5023600;28;20018;-76
2021/01/18 02:52:44;;;;;;;64.53;29.27;;;140.80;2176.00;;;;;;5036986;28;20078;-75
2021/01/18 02:55:12;;;;;;;55.30;27.73;;;140.80;2176.00;;;;;;5037598;28;20014;-75
2021/01/18 02:57:48;;;;;;;67.00;30.53;;;140.90;2176.00;;;;;;5020673;28;20018;-75
2021/01/18 03:00:24;;;;;;;57.90;29.13;;;140.90;2176.00;;;;;;5020062;28;20038;-75
2021/01/18 03:03:14;;;;;;;57.80;28.20;;;140.90;2176.00;;;;;;5020726;28;20041;-75
2021/01/18 03:05:52;;;;;;;55.93;27.60;;;140.90;2176.00;;;;;;5020625;28;20085;-76
2021/01/18 03:08:31;;;;;;;47.03;24.30;;;140.90;2176.00;;;;;;5018893;28;20014;-75
2021/01/18 03:11:10;;;;;;;50.90;24.87;;;140.90;2176.00;;;;;;5018130;28;20026;-75
2021/01/18 03:13:38;;;;;;;50.63;25.33;;;141.00;2176.00;;;;;;5035411;28;20074;-75
2021/01/18 03:16:15;;;;;;;47.37;24.40;;;141.00;2176.00;;;;;;5037609;28;20018;-74
2021/01/18 03:18:43;;;;;;;52.10;25.47;;;141.00;2176.00;;;;;;5032611;28;20006;-75
2021/01/18 03:21:23;;;;;;;50.13;23.97;;;141.10;2176.00;;;;;;5035240;28;20088;-77
2021/01/18 03:23:49;;;;;;;51.83;24.87;;;141.10;2176.00;;;;;;5018305;28;20025;-75
2021/01/18 03:26:15;;;;;;;51.97;25.40;;;141.10;2176.00;;;;;;5034154;28;20037;-75
2021/01/18 03:28:42;;;;;;;50.90;24.53;;;141.20;2176.00;;;;;;5018225;28;20048;-75
2021/01/18 03:31:07;;;;;;;53.23;26.10;;;141.20;2176.00;;;;;;5036294;28;20010;-77
2021/01/18 03:33:33;;;;;;;55.50;26.30;;;141.20;2176.00;;;;;;5014358;28;20498;-75
2021/01/18 03:35:59;;;;;;;53.40;25.20;;;141.20;2176.00;;;;;;5015150;28;20014;-77
2021/01/18 03:38:25;;;;;;;50.57;24.40;;;141.30;2176.00;;;;;;5030915;28;20018;-75
2021/01/18 03:40:52;;;;;;;46.77;23.87;;;141.20;2176.00;;;;;;5034794;28;20010;-75
2021/01/18 03:43:21;;;;;;;46.47;24.67;;;141.20;2176.00;;;;;;5017419;28;20078;-76
2021/01/18 03:45:50;;;;;;;48.80;24.87;;;141.20;2176.00;;;;;;5034361;28;20041;-75
2021/01/18 03:48:16;;;;;;;46.00;24.77;;;141.20;2176.00;;;;;;5016886;28;20014;-77
2021/01/18 03:50:51;;;;;;;58.50;26.20;;;141.30;2176.00;;;;;;5034941;28;20081;-75
2021/01/18 03:53:18;;;;;;;54.37;27.67;;;141.20;2176.00;;;;;;5016500;28;20036;-75
2021/01/18 03:55:45;;;;;;;52.73;27.40;;;141.20;2176.00;;;;;;5016362;28;20076;-77
2021/01/18 03:58:11;;;;;;;55.07;28.07;;;141.20;2176.00;;;;;;5015729;28;20044;-75
2021/01/18 04:00:37;;;;;;;57.93;27.40;;;141.20;2176.00;;;;;;5016291;28;20030;-76
2021/01/18 04:03:04;;;;;;;57.27;27.67;;;141.20;2176.00;;;;;;5018362;28;20010;-75
2021/01/18 04:05:30;;;;;;;56.90;27.73;;;141.20;2176.00;;;;;;5036504;28;20010;-76
2021/01/18 04:08:06;;;;;;;55.43;27.13;;;141.20;2176.00;;;;;;5035858;28;20046;-75
2021/01/18 04:10:32;;;;;;;57.93;27.93;;;141.20;2176.00;;;;;;5018525;28;20025;-75
2021/01/18 04:12:58;;;;;;;60.17;27.60;;;141.20;2176.00;;;;;;5018581;28;20018;-80
2021/01/18 04:15:42;;;;;;;62.27;29.27;;;141.20;2176.00;;;;;;5034872;28;20069;-75
2021/01/18 04:18:08;;;;;;;66.30;29.57;;;141.20;2176.00;;;;;;5034726;28;20014;-75
2021/01/18 04:20:34;;;;;;;52.43;26.20;;;141.20;2176.00;;;;;;5034714;28;20041;-76
2021/01/18 04:23:04;;;;;;;48.17;25.53;;;141.20;2176.00;;;;;;5019083;28;20010;-75
2021/01/18 04:25:33;;;;;;;48.23;25.10;;;141.20;2176.00;;;;;;5035268;28;20013;-77
2021/01/18 04:28:01;;;;;;;55.63;26.87;;;141.30;2176.00;;;;;;5018078;28;20010;-75
2021/01/18 04:30:33;;;;;;;54.87;27.23;;;141.20;2176.00;;;;;;5014729;28;20038;-76
2021/01/18 04:33:03;;;;;;;65.03;28.83;;;141.30;2176.00;;;;;;5015912;28;20037;-75
2021/01/18 04:35:37;;;;;;;55.30;27.07;;;141.40;2176.00;;;;;;5015518;28;20070;-75
2021/01/18 04:38:04;;;;;;;46.17;23.70;;;141.40;2176.00;;;;;;5016581;28;20038;-76
2021/01/18 04:40:32;;;;;;;51.93;26.03;;;166.60;2176.00;;;;;;5014304;28;20038;-75
2021/01/18 04:42:58;;;;;;;50.63;26.77;;;141.40;2176.00;;;;;;5016693;28;20018;-77
2021/01/18 04:45:25;;;;;;;48.90;26.80;;;141.40;2176.00;;;;;;5014539;28;20069;-75
2021/01/18 04:47:53;;;;;;;51.30;25.43;;;141.40;2176.00;;;;;;5013354;28;20013;-76
2021/01/18 04:50:41;;;;;;;53.03;25.40;;;141.40;2176.00;;;;;;5014492;28;20069;-75
2021/01/18 04:53:17;;;;;;;48.33;25.37;;;141.50;2176.00;;;;;;5015645;28;20018;-76
2021/01/18 04:56:16;;;;;;;52.97;24.70;;;141.50;2176.00;;;;;;5015236;28;20010;-75
2021/01/18 04:58:46;;;;;;;45.43;24.70;;;141.50;2176.00;;;;;;4930345;28;20047;-76
2021/01/18 05:01:28;;;;;;;51.03;25.33;;;141.60;2176.00;;;;;;5015312;28;20018;-76
2021/01/18 05:04:17;;;;;;;46.80;24.93;;;141.60;2176.00;;;;;;4989406;28;20042;-75
2021/01/18 05:06:46;;;;;;;53.60;25.47;;;141.70;2176.00;;;;;;4987962;28;20059;-76
2021/01/18 05:09:29;;;;;;;51.43;25.23;;;141.70;2176.00;;;;;;4987906;28;20010;-75
2021/01/18 05:12:15;;;;;;;51.43;25.60;;;141.70;2176.00;;;;;;4988445;28;20117;-76
2021/01/18 05:14:41;;;;;;;53.83;28.13;;;166.40;2176.00;;;;;;4987326;28;20509;-75
2021/01/18 05:17:10;;;;;;;49.93;26.30;;;166.40;2176.00;;;;;;4987183;28;20078;-77
2021/01/18 05:19:36;;;;;;;56.30;27.47;;;166.40;2176.00;;;;;;4988779;28;20030;-75
2021/01/18 05:22:05;;;;;;;58.87;29.37;;;141.70;2176.00;;;;;;4988147;28;20031;-77
2021/01/18 05:24:36;;;;;;;72.83;36.63;;;166.40;2176.00;;;;;;4992004;28;20015;-75
2021/01/18 05:27:14;;;;;;;70.23;34.80;;;166.40;2176.00;;;;;;4991139;28;20025;-76
2021/01/18 05:29:40;;;;;;;70.43;35.17;;;166.40;2176.00;;;;;;4989275;28;20030;-77
2021/01/18 05:32:24;;;;;;;68.17;34.93;;;166.50;2176.00;;;;;;4988850;28;20031;-76
2021/01/18 05:35:11;;;;;;;70.70;36.07;;;166.50;2176.00;;;;;;4992131;28;20070;-75
2021/01/18 05:37:55;;;;;;;76.90;39.50;;;166.60;2176.00;;;;;;4993405;28;20007;-75
2021/01/18 05:40:22;;;;;;;74.30;39.53;;;166.70;2176.00;;;;;;4993722;28;20037;-80
2021/01/18 05:42:50;;;;;;;79.27;39.07;;;166.70;2176.00;;;;;;4993775;28;20014;-76
2021/01/18 05:45:31;;;;;;;86.07;42.23;;;166.70;2176.00;;;;;;4994201;28;20030;-76
2021/01/18 05:47:58;;;;;;;86.43;41.07;;;166.70;2176.00;;;;;;4992568;28;20011;-75
2021/01/18 05:50:28;;;;;;;80.37;40.47;;;166.40;2176.00;;;;;;4994307;28;20117;-75
2021/01/18 05:53:03;;;;;;;97.77;44.20;;;166.70;2176.00;;;;;;4994161;28;20030;-75
2021/01/18 05:55:30;;;;;;;102.03;43.57;;;166.80;2176.00;;;;;;4992496;28;20025;-75
2021/01/18 05:57:58;;;;;;;103.10;42.27;;;166.80;2176.00;;;;;;4993274;28;20027;-76
2021/01/18 06:00:25;;;;;;;92.27;40.20;;;166.70;2176.00;;;;;;4993629;28;20506;-75
2021/01/18 06:02:51;;;;;;;81.27;37.23;;;166.70;2176.00;;;;;;4993383;28;20015;-75
2021/01/18 06:05:39;;;;;;;77.20;36.47;;;166.70;2176.00;;;;;;4994659;28;20034;-75
2021/01/18 06:08:12;;;;;;;83.30;36.20;;;166.60;2176.00;;;;;;4994448;28;20027;-75
2021/01/18 06:10:53;;;;;;;91.10;43.35;;;166.60;2176.00;;;;;;4994547;28;20027;-76
2021/01/18 06:13:38;;;;;;;116.63;46.50;;;166.60;2176.00;;;;;;4994196;28;20011;-76
2021/01/18 06:16:10;;;;;;;88.80;41.80;;;166.50;2176.00;;;;;;4993263;28;20049;-75
2021/01/18 06:18:40;;;;;;;84.87;40.90;;;166.60;2176.00;;;;;;4994266;28;20034;-75
2021/01/18 06:21:13;;;;;;;82.50;41.03;;;166.50;2176.00;;;;;;4991878;28;20053;-76
2021/01/18 06:23:40;;;;;;;95.93;49.88;;;166.60;2176.00;;;;;;4992725;28;20021;-75
2021/01/18 06:26:07;;;;;;;145.47;78.30;;;166.60;2176.00;;;;;;4991772;28;20015;-75
2021/01/18 06:28:38;;;;;;;148.50;64.93;;;166.50;2176.00;;;;;;4992829;28;20026;-75
2021/01/18 06:31:25;;;;;;;108.57;47.87;;;166.50;2176.00;;;;;;4994929;28;20061;-75
2021/01/18 06:33:51;;;;;;;113.40;49.30;;;166.50;2176.00;;;;;;4996650;28;20015;-75
2021/01/18 06:36:25;;;;;;;90.63;42.07;;;166.50;2176.00;;;;;;4995256;28;20074;-75
2021/01/18 06:39:11;;;;;;;138.40;56.20;;;166.50;2176.00;;;;;;5014241;28;20011;-75
2021/01/18 06:41:38;;;;;;;139.83;60.43;;;166.50;2176.00;;;;;;4997182;28;20011;-75
2021/01/18 06:44:05;;;;;;;164.23;67.07;;;166.50;2176.00;;;;;;4996752;28;20038;-77
2021/01/18 06:46:35;;;;;;;250.87;122.27;;;166.60;2176.00;;;;;;4997080;28;20010;-76
2021/01/18 06:49:02;;;;;;;300.33;146.73;;;166.50;2176.00;;;;;;4997270;28;20045;-75
2021/01/18 06:51:29;;;;;;;344.33;155.57;;;166.50;2176.00;;;;;;4997552;28;20022;-76
2021/01/18 06:53:57;;;;;;;304.37;136.53;;;166.50;2176.00;;;;;;4997025;28;20026;-75
2021/01/18 06:56:23;;;;;;;351.23;147.00;;;166.50;2176.00;;;;;;5013978;28;20015;-76
2021/01/18 06:59:19;;;;;;;248.93;108.93;;;166.50;2176.00;;;;;;5013953;28;20082;-75
2021/01/18 07:01:52;;;;;;;311.73;125.93;;;166.50;2176.00;;;;;;4996818;28;20408;-75
2021/01/18 07:04:29;;;;;;;305.20;116.00;;;166.50;2176.00;;;;;;4998718;28;20014;-76
2021/01/18 07:07:03;;;;;;;339.37;120.43;;;166.50;2176.00;;;;;;4995470;28;20065;-75
2021/01/18 07:09:30;;;;;;;311.83;110.05;;;166.50;2176.00;;;;;;4997671;28;20081;-76
2021/01/18 07:12:03;;;;;;;391.27;137.97;;;166.60;2176.00;;;;;;5013051;28;20025;-75
2021/01/18 07:14:31;;;;;;;416.85;146.15;;;166.50;2176.00;;;;;;5006673;22;20025;-78
2021/01/18 07:17:04;;;;;;;448.77;148.30;;;166.50;2176.00;;;;;;4997883;28;20026;-75
2021/01/18 07:19:46;;;;;;;433.60;146.70;;;166.40;2176.00;;;;;;5014111;28;20015;-75
2021/01/18 07:22:46;;;;;;;475.33;167.40;;;166.40;2176.00;;;;;;5004172;28;20038;-75
2021/01/18 07:27:45;;;;;;;353.30;132.33;;;141.70;2176.00;;;;;;5043716;28;20478;-75
2021/01/18 07:30:12;;;;;;;341.43;160.60;;;141.70;2176.00;;;;;;5051412;28;20060;-76
2021/01/18 07:32:37;;;;;;;239.73;102.90;;;141.60;2176.00;;;;;;5046621;28;20034;-75
2021/01/18 07:35:05;;;;;;;135.50;64.27;;;141.60;2176.00;;;;;;5037429;22;20054;-75
2021/01/18 07:37:30;;;;;;;112.83;52.43;;;141.50;2176.00;;;;;;5000703;28;20125;-76
2021/01/18 07:40:12;;;;;;;105.03;48.53;;;141.50;2176.00;;;;;;5005258;28;20140;-75
2021/01/18 07:42:40;;;;;;;104.03;47.37;;;141.40;2176.00;;;;;;5004435;28;20505;-75
2021/01/18 07:45:12;;;;;;;112.83;51.63;;;141.40;2176.00;;;;;;5002935;28;20030;-75
2021/01/18 07:47:56;;;;;;;93.07;43.80;;;141.30;2176.00;;;;;;5003003;28;20187;-75
2021/01/18 07:50:38;;;;;;;95.10;45.67;;;141.30;2176.00;;;;;;5008116;28;20038;-75
2021/01/18 07:53:08;;;;;;;110.70;49.50;;;141.30;2176.00;;;;;;4999009;28;20367;-75
2021/01/18 07:55:35;;;;;;;108.50;51.30;;;141.20;2176.00;;;;;;5000699;28;20034;-75
2021/01/18 07:58:15;;;;;;;121.13;58.40;;;141.10;2176.00;;;;;;4998469;28;20027;-75
2021/01/18 08:00:42;;;;;;;199.87;112.03;;;141.10;2176.00;;;;;;4999530;28;20023;-75
2021/01/18 08:03:08;;;;;;;185.87;83.17;;;141.00;2176.00;;;;;;5001016;28;20033;-75
2021/01/18 08:05:37;;;;;;;140.00;62.67;;;141.00;2176.00;;;;;;5000786;28;20018;-75
2021/01/18 08:08:10;;;;;;;115.47;51.37;;;140.90;2176.00;;;;;;5003774;28;20030;-75
2021/01/18 08:11:00;;;;;;;99.07;44.70;;;140.80;2176.00;;;;;;5001198;28;20106;-75
2021/01/18 08:13:43;;;;;;;103.47;46.23;;;140.80;2176.00;;;;;;5004534;28;20369;-75
2021/01/18 08:16:39;;;;;;;103.17;47.70;;;116.10;2176.00;;;;;;5001561;28;20090;-75
2021/01/18 08:19:26;;;;;;;183.20;67.13;;;116.10;2176.00;;;;;;5000601;28;20014;-75
2021/01/18 08:22:09;;;;;;;140.50;63.17;;;116.00;2176.00;;;;;;5000374;28;20014;-75
2021/01/18 08:24:35;;;;;;;120.13;55.47;;;116.00;2176.00;;;;;;5005083;28;20372;-75
2021/01/18 08:27:02;;;;;;;110.73;46.70;;;115.90;2176.00;;;;;;5000531;28;20264;-75
2021/01/18 08:29:38;;;;;;;109.90;48.53;;;115.80;2176.00;;;;;;5004573;28;20034;-75
2021/01/18 08:32:25;;;;;;;98.37;52.73;;;115.80;2176.00;;;;;;5000126;28;20033;-75
2021/01/18 08:35:04;;;;;;;181.77;99.87;;;115.70;2176.00;;;;;;5000104;28;20054;-75
2021/01/18 08:37:31;;;;;;;169.43;78.70;;;115.60;2176.00;;;;;;5003843;28;20027;-75
2021/01/18 08:40:13;;;;;;;92.67;46.03;;;115.50;2176.00;;;;;;4998801;28;20026;-74
2021/01/18 08:42:41;;;;;;;69.07;35.37;;;115.40;2176.00;;;;;;5002713;28;20037;-75
2021/01/18 08:45:20;;;;;;;82.30;36.23;;;115.30;2176.00;;;;;;5003680;28;20352;-75
2021/01/18 08:48:00;;;;;;;142.40;55.20;;;115.30;2176.00;;;;;;5002987;28;20030;-75
2021/01/18 08:50:31;;;;;;;156.73;62.70;;;115.20;2176.00;;;;;;5022453;22;20049;-75
2021/01/18 08:53:02;;;;;;;133.67;53.03;;;90.50;2176.00;;;;;;5022269;28;20029;-75
2021/01/18 08:55:30;;;;;;;168.03;58.83;;;90.40;2176.00;;;;;;5023007;28;20030;-75
2021/01/18 08:58:07;;;;;;;162.30;66.97;;;90.30;2176.00;;;;;;5026552;28;20034;-75
2021/01/18 09:00:46;;;;;;;74.27;36.90;;;90.20;2176.00;;;;;;5024801;28;20086;-75
2021/01/18 09:03:21;;;;;;;76.73;39.00;;;90.10;2176.00;;;;;;5025651;28;20002;-75
2021/01/18 09:05:48;;;;;;;66.97;33.90;;;90.00;2176.00;;;;;;5022406;28;20540;-75
2021/01/18 09:08:16;;;;;;;84.67;52.57;;;89.80;2176.00;;;;;;5024662;28;20029;-77
2021/01/18 09:10:56;;;;;;;250.73;138.30;;;64.90;2201.60;;;;;;5023723;28;20018;-75
2021/01/18 09:13:24;;;;;;;136.73;68.87;;;64.70;2201.60;;;;;;5035414;28;20037;-75
2021/01/18 09:15:52;;;;;;;62.53;35.17;;;64.40;2201.60;;;;;;5030366;28;20030;-75
2021/01/18 09:18:28;;;;;;;49.77;27.50;;;64.30;2201.60;;;;;;5027378;28;20022;-75
2021/01/18 09:20:56;;;;;;;57.90;31.63;;;64.30;2201.60;;;;;;5033091;28;20032;-77
2021/01/18 09:23:25;;;;;;;51.17;26.60;;;64.30;2201.60;;;;;;5032213;28;20030;-82
2021/01/18 09:26:18;;;;;;;52.15;28.95;;;64.10;2201.60;;;;;;5017006;28;20034;-82
2021/01/18 09:28:58;;;;;;;52.60;27.17;;;39.10;2201.60;;;;;;5022001;28;20053;-80
2021/01/18 09:31:28;;;;;;;56.77;26.07;;;39.10;2176.00;;;;;;5025575;28;20235;-80
2021/01/18 09:34:13;;;;;;;59.80;29.53;;;38.90;2176.00;;;;;;5015788;28;20006;-80
2021/01/18 09:36:43;;;;;;;59.07;32.20;;;39.30;2176.00;;;;;;5011649;28;20022;-77
2021/01/18 09:39:46;;;;;;;70.97;40.17;;;38.80;2176.00;;;;;;5016356;28;20053;-80
2021/01/18 09:42:46;;;;;;;68.27;39.47;;;38.80;2176.00;;;;;;4960062;28;20039;-79
2021/01/18 09:45:57;;;;;;;157.80;95.87;;;38.80;2150.40;;;;;;4994429;28;20015;-78
2021/01/18 09:48:29;;;;;;;99.13;47.27;;;38.80;2176.00;;;;;;5001781;28;20034;-75
2021/01/18 09:51:09;;;;;;;57.93;31.17;;;38.70;2176.00;;;;;;4993311;28;20049;-78
2021/01/18 09:57:24;;;;;;;49.43;25.17;;;38.60;2099.20;;;;;;4999877;28;20061;-78
2021/01/18 10:00:30;;;;;;;59.77;31.03;;;38.60;2150.40;;;;;;4997164;28;20023;-79
2021/01/18 10:03:00;;;;;;;56.10;30.60;;;38.50;2176.00;;;;;;4997981;28;20022;-79
2021/01/18 10:06:11;;;;;;;43.07;25.00;;;38.40;2150.40;;;;;;5006117;28;20141;-82
2021/01/18 10:09:02;;;;;;;48.03;26.17;;;38.40;2124.80;;;;;;4999685;28;20069;-78
2021/01/18 10:12:40;;;;;;;52.43;27.87;;;38.40;2124.80;;;;;;5016214;28;20038;-82
2021/01/18 10:15:48;;;;;;;62.57;32.17;;;38.40;2124.80;;;;;;5035641;28;20014;-78
2021/01/18 10:18:27;;;;;;;86.50;66.30;;;13.70;2124.80;;;;;;5035376;28;20049;-82
2021/01/18 10:21:14;;;;;;;129.67;63.07;;;13.70;2124.80;;;;;;5034416;28;20041;-79
2021/01/18 10:23:48;;;;;;;96.60;48.63;;;13.70;2124.80;;;;;;5026403;28;20036;-77
2021/01/18 10:26:16;;;;;;;95.60;45.77;;;13.60;2124.80;;;;;;5007803;28;20026;-77
2021/01/18 10:29:09;;;;;;;95.10;44.20;;;13.50;2099.20;;;;;;5029205;28;20032;-77
2021/01/18 10:31:51;;;;;;;193.83;79.67;;;13.50;2124.80;;;;;;5016909;28;20057;-77
2021/01/18 10:34:28;;;;;;;89.20;40.13;;;13.50;2099.20;;;;;;5029009;28;20042;-77
2021/01/18 10:36:57;;;;;;;83.83;38.17;;;13.40;2099.20;;;;;;5046468;22;20069;-77
2021/01/18 10:42:32;;;;;;;252.57;101.90;;;13.40;2099.20;;;;;;5022871;22;20058;-79
2021/01/18 10:45:08;;;;;;;101.63;47.17;;;13.40;2099.20;;;;;;5017323;28;20042;-78
2021/01/18 10:47:34;;;;;;;90.43;44.20;;;13.00;2073.60;;;;;;5013473;28;20097;-75
2021/01/18 10:50:01;;;;;;;160.33;73.97;;;13.40;2099.20;;;;;;5033831;28;20094;-80
2021/01/18 10:52:43;;;;;;;86.00;50.07;;;13.40;2099.20;;;;;;5032356;28;20014;-79
2021/01/18 10:55:14;;;;;;;158.60;78.37;;;13.40;2099.20;;;;;;5019386;28;20117;-79
2021/01/18 10:57:45;;;;;;;120.13;59.67;;;13.30;2124.80;;;;;;5034933;28;20065;-81
2021/01/18 11:00:41;;;;;;;78.87;39.97;;;13.40;2124.80;;;;;;5036045;28;20025;-81
2021/01/18 11:03:09;;;;;;;85.43;42.07;;;13.40;2099.20;;;;;;5035916;28;20103;-80
2021/01/18 11:06:22;;;;;;;67.13;33.17;;;13.40;2099.20;;;;;;5039999;28;20018;-81
2021/01/18 11:08:57;;;;;;;46.73;25.20;;;13.40;2099.20;;;;;;5003537;28;20035;-79
2021/01/18 11:11:47;;;;;;;111.33;54.83;;;13.40;2073.60;;;;;;5033195;28;20030;-77
2021/01/18 11:14:16;;;;;;;152.90;76.17;;;13.30;2099.20;;;;;;5022893;28;20029;-76
2021/01/18 11:17:07;;;;;;;194.03;93.43;;;13.30;2150.40;;;;;;5003875;28;20034;-76
2021/01/18 11:19:40;;;;;;;250.07;111.53;;;13.30;2176.00;;;;;;5014502;28;20029;-84
2021/01/18 11:22:07;;;;;;;251.85;107.97;;;13.20;2176.00;;;;;;5018461;28;20475;-79
2021/01/18 11:24:40;;;;;;;116.73;51.20;;;13.20;2150.40;;;;;;5031014;28;20049;-80
2021/01/18 11:27:13;;;;;;;401.33;153.93;;;13.20;2124.80;;;;;;5022351;28;20042;-78
2021/01/18 11:29:51;;;;;;;331.70;126.77;;;13.10;2124.80;;;;;;5021386;28;20038;-79
2021/01/18 11:32:22;;;;;;;330.17;129.43;;;13.10;2124.80;;;;;;5014595;28;20434;-79
2021/01/18 11:34:52;;;;;;;90.57;42.80;;;13.10;2124.80;;;;;;5007733;28;20038;-80
2021/01/18 11:37:18;;;;;;;108.40;50.47;;;13.10;2124.80;;;;;;5006089;28;20034;-78
2021/01/18 11:39:44;;;;;;;240.17;101.93;;;13.00;2124.80;;;;;;5013583;28;20521;-78
2021/01/18 11:42:10;;;;;;;107.13;51.03;;;13.00;2150.40;;;;;;5015571;28;20100;-78
2021/01/18 11:44:37;;;;;;;290.97;135.07;;;13.10;2150.40;;;;;;5016061;28;20535;-79
2021/01/18 11:47:04;;;;;;;183.40;92.13;;;13.00;2176.00;;;;;;5014393;28;20113;-79
2021/01/18 11:49:31;;;;;;;69.10;39.03;;;13.00;2150.40;;;;;;5002135;28;20081;-79
2021/01/18 11:51:58;;;;;;;70.17;39.23;;;13.00;2150.40;;;;;;5001734;28;20072;-79
2021/01/18 11:54:25;;;;;;;63.10;34.53;;;13.00;2176.00;;;;;;4985471;28;20034;-79
2021/01/18 11:56:52;;;;;;;65.53;36.83;;;0.90;2176.00;;;;;;5001281;28;20053;-78
2021/01/18 11:59:18;;;;;;;58.23;32.90;;;12.90;2176.00;;;;;;5004754;28;20034;-79
2021/01/18 12:01:45;;;;;;;68.03;33.03;;;12.90;2176.00;;;;;;5002731;28;20030;-79
2021/01/18 12:04:12;;;;;;;56.57;32.87;;;12.90;2201.60;;;;;;5001041;28;20456;-79
2021/01/18 12:06:40;;;;;;;47.63;27.40;;;13.00;2201.60;;;;;;5003478;28;20043;-80
2021/01/18 12:09:08;;;;;;;54.43;30.50;;;12.90;2201.60;;;;;;5003922;28;20050;-78
2021/01/18 12:11:40;;;;;;;60.93;34.40;;;12.90;2201.60;;;;;;5002837;28;20038;-79
2021/01/18 12:14:08;;;;;;;68.83;35.10;;;0.00;2201.60;;;;;;5002837;28;20031;-79
2021/01/18 12:16:34;;;;;;;92.00;47.23;;;12.90;2201.60;;;;;;5003862;28;20034;-78
2021/01/18 12:19:00;;;;;;;74.80;39.67;;;0.00;2201.60;;;;;;5007513;28;20493;-80
2021/01/18 12:21:26;;;;;;;61.23;33.37;;;0.00;2201.60;;;;;;5004794;28;20061;-79
2021/01/18 12:23:51;;;;;;;61.07;34.53;;;0.00;2201.60;;;;;;5000711;28;20403;-78
2021/01/18 12:26:21;;;;;;;59.87;34.00;;;0.00;2201.60;;;;;;5008590;28;20026;-79
2021/01/18 12:28:48;;;;;;;46.67;29.27;;;0.00;2201.60;;;;;;5012423;28;20550;-77
2021/01/18 12:31:15;;;;;;;48.67;27.83;;;12.90;2201.60;;;;;;5021524;28;20033;-78
2021/01/18 12:33:41;;;;;;;49.07;28.53;;;12.90;2201.60;;;;;;5024843;28;20025;-77
2021/01/18 12:36:10;;;;;;;50.13;30.10;;;12.90;2201.60;;;;;;5007610;28;20177;-77
2021/01/18 12:38:37;;;;;;;49.27;30.07;;;13.00;2201.60;;;;;;5001929;28;20018;-77
2021/01/18 12:41:03;;;;;;;50.50;28.70;;;13.00;2201.60;;;;;;4991960;28;20045;-76